sensor_id;sensor_type;location;lat;lon;timestamp;temperature;humidity
60717;DHT22;46566;52.700;6.192;2024-02-21T00:00:21;9.50;99.90
60717;DHT22;46566;52.700;6.192;2024-02-21T00:02:47;9.50;99.90
60717;DHT22;46566;52.700;6.192;2024-02-21T00:05:13;9.40;99.90
60717;DHT22;46566;52.700;6.192;2024-02-21T00:07:38;9.40;99.90
60717;DHT22;46566;52.700;6.192;2024-02-21T00:10:04;9.40;99.90
60717;DHT22;46566;52.700;6.192;2024-02-21T00:12:30;9.40;99.90
60717;DHT22;46566;52.700;6.192;2024-02-21T00:14:56;9.40;99.90
60717;DHT22;46566;52.700;6.192;2024-02-21T00:17:22;9.40;99.90
60717;DHT22;46566;52.700;6.192;2024-02-21T00:19:48;9.40;99.90
60717;DHT22;46566;52.700;6.192;2024-02-21T00:22:13;9.40;99.90
60717;DHT22;46566;52.700;6.192;2024-02-21T00:24:39;9.40;99.90
60717;DHT22;46566;52.700;6.192;2024-02-21T00:27:05;9.40;99.90
60717;DHT22;46566;52.700;6.192;2024-02-21T00:29:31;9.40;99.90
60717;DHT22;46566;52.700;6.192;2024-02-21T00:31:56;9.40;99.90
60717;DHT22;46566;52.700;6.192;2024-02-21T00:34:22;9.40;99.90
60717;DHT22;46566;52.700;6.192;2024-02-21T00:36:48;9.40;99.90
60717;DHT22;46566;52.700;6.192;2024-02-21T00:39:15;9.30;99.90
60717;DHT22;46566;52.700;6.192;2024-02-21T00:41:40;9.30;99.90
60717;DHT22;46566;52.700;6.192;2024-02-21T00:44:06;9.30;99.90
60717;DHT22;46566;52.700;6.192;2024-02-21T00:46:32;9.30;99.90
60717;DHT22;46566;52.700;6.192;2024-02-21T00:48:58;9.30;99.90
60717;DHT22;46566;52.700;6.192;2024-02-21T00:51:24;9.30;99.90
60717;DHT22;46566;52.700;6.192;2024-02-21T00:53:49;9.30;99.90
60717;DHT22;46566;52.700;6.192;2024-02-21T00:56:16;9.30;99.90
60717;DHT22;46566;52.700;6.192;2024-02-21T00:58:43;9.30;99.90
60717;DHT22;46566;52.700;6.192;2024-02-21T01:01:09;9.30;99.90
60717;DHT22;46566;52.700;6.192;2024-02-21T01:03:35;9.20;99.90
60717;DHT22;46566;52.700;6.192;2024-02-21T01:06:01;9.30;99.90
60717;DHT22;46566;52.700;6.192;2024-02-21T01:08:26;9.20;99.90
60717;DHT22;46566;52.700;6.192;2024-02-21T01:10:52;9.30;99.90
60717;DHT22;46566;52.700;6.192;2024-02-21T01:13:18;9.20;99.90
60717;DHT22;46566;52.700;6.192;2024-02-21T01:15:44;9.20;99.90
60717;DHT22;46566;52.700;6.192;2024-02-21T01:18:10;9.20;99.90
60717;DHT22;46566;52.700;6.192;2024-02-21T01:20:35;9.20;99.90
60717;DHT22;46566;52.700;6.192;2024-02-21T01:23:01;9.20;99.90
60717;DHT22;46566;52.700;6.192;2024-02-21T01:25:27;9.20;99.90
60717;DHT22;46566;52.700;6.192;2024-02-21T01:27:53;9.20;99.90
60717;DHT22;46566;52.700;6.192;2024-02-21T01:30:19;9.20;99.90
60717;DHT22;46566;52.700;6.192;2024-02-21T01:32:44;9.20;99.90
60717;DHT22;46566;52.700;6.192;2024-02-21T01:35:10;9.20;99.90
60717;DHT22;46566;52.700;6.192;2024-02-21T01:37:36;9.20;99.90
60717;DHT22;46566;52.700;6.192;2024-02-21T01:40:01;9.20;99.90
60717;DHT22;46566;52.700;6.192;2024-02-21T01:42:29;9.20;99.90
60717;DHT22;46566;52.700;6.192;2024-02-21T01:44:54;9.20;99.90
60717;DHT22;46566;52.700;6.192;2024-02-21T01:47:20;9.20;99.90
60717;DHT22;46566;52.700;6.192;2024-02-21T01:49:46;9.20;99.90
60717;DHT22;46566;52.700;6.192;2024-02-21T01:52:14;9.20;99.90
60717;DHT22;46566;52.700;6.192;2024-02-21T01:54:40;9.20;99.90
60717;DHT22;46566;52.700;6.192;2024-02-21T01:57:06;9.20;99.90
60717;DHT22;46566;52.700;6.192;2024-02-21T01:59:32;9.20;99.90
60717;DHT22;46566;52.700;6.192;2024-02-21T02:01:58;9.20;99.90
60717;DHT22;46566;52.700;6.192;2024-02-21T02:04:25;9.20;99.90
60717;DHT22;46566;52.700;6.192;2024-02-21T02:06:54;9.20;99.90
60717;DHT22;46566;52.700;6.192;2024-02-21T02:09:20;9.10;99.90
60717;DHT22;46566;52.700;6.192;2024-02-21T02:11:46;9.10;99.90
60717;DHT22;46566;52.700;6.192;2024-02-21T02:14:12;9.00;99.90
60717;DHT22;46566;52.700;6.192;2024-02-21T02:16:37;9.00;99.90
60717;DHT22;46566;52.700;6.192;2024-02-21T02:19:04;8.90;99.90
60717;DHT22;46566;52.700;6.192;2024-02-21T02:21:35;9.00;99.90
60717;DHT22;46566;52.700;6.192;2024-02-21T02:24:03;9.00;99.90
60717;DHT22;46566;52.700;6.192;2024-02-21T02:26:30;9.00;99.90
60717;DHT22;46566;52.700;6.192;2024-02-21T02:28:56;9.00;99.90
60717;DHT22;46566;52.700;6.192;2024-02-21T02:31:21;8.90;99.90
60717;DHT22;46566;52.700;6.192;2024-02-21T02:33:47;9.00;99.90
60717;DHT22;46566;52.700;6.192;2024-02-21T02:36:14;9.10;99.90
60717;DHT22;46566;52.700;6.192;2024-02-21T02:38:40;9.00;99.90
60717;DHT22;46566;52.700;6.192;2024-02-21T02:41:05;9.00;99.90
60717;DHT22;46566;52.700;6.192;2024-02-21T02:43:31;9.00;99.90
60717;DHT22;46566;52.700;6.192;2024-02-21T02:45:57;9.00;99.90
60717;DHT22;46566;52.700;6.192;2024-02-21T02:48:23;9.00;99.90
60717;DHT22;46566;52.700;6.192;2024-02-21T02:50:48;9.00;99.90
60717;DHT22;46566;52.700;6.192;2024-02-21T02:53:15;9.00;99.90
60717;DHT22;46566;52.700;6.192;2024-02-21T02:55:41;9.00;99.90
60717;DHT22;46566;52.700;6.192;2024-02-21T02:58:06;9.00;99.90
60717;DHT22;46566;52.700;6.192;2024-02-21T03:00:32;8.90;99.90
60717;DHT22;46566;52.700;6.192;2024-02-21T03:03:01;9.00;99.90
60717;DHT22;46566;52.700;6.192;2024-02-21T03:05:29;8.90;99.90
60717;DHT22;46566;52.700;6.192;2024-02-21T03:07:55;8.90;99.90
60717;DHT22;46566;52.700;6.192;2024-02-21T03:10:21;8.80;99.90
60717;DHT22;46566;52.700;6.192;2024-02-21T03:12:47;8.80;99.90
60717;DHT22;46566;52.700;6.192;2024-02-21T03:15:13;8.90;99.90
60717;DHT22;46566;52.700;6.192;2024-02-21T03:17:40;8.90;99.90
60717;DHT22;46566;52.700;6.192;2024-02-21T03:20:06;8.90;99.90
60717;DHT22;46566;52.700;6.192;2024-02-21T03:22:35;8.90;99.90
60717;DHT22;46566;52.700;6.192;2024-02-21T03:25:02;8.90;99.90
60717;DHT22;46566;52.700;6.192;2024-02-21T03:27:28;8.90;99.90
60717;DHT22;46566;52.700;6.192;2024-02-21T03:29:53;8.80;99.90
60717;DHT22;46566;52.700;6.192;2024-02-21T03:32:19;8.90;99.90
60717;DHT22;46566;52.700;6.192;2024-02-21T03:34:45;8.90;99.90
60717;DHT22;46566;52.700;6.192;2024-02-21T03:37:10;8.90;99.90
60717;DHT22;46566;52.700;6.192;2024-02-21T03:39:37;8.90;99.90
60717;DHT22;46566;52.700;6.192;2024-02-21T03:42:03;8.80;99.90
60717;DHT22;46566;52.700;6.192;2024-02-21T03:44:31;8.90;99.90
60717;DHT22;46566;52.700;6.192;2024-02-21T03:46:58;8.90;99.90
60717;DHT22;46566;52.700;6.192;2024-02-21T03:49:24;8.90;99.90
60717;DHT22;46566;52.700;6.192;2024-02-21T03:51:50;8.90;99.90
60717;DHT22;46566;52.700;6.192;2024-02-21T03:54:15;8.90;99.90
60717;DHT22;46566;52.700;6.192;2024-02-21T03:56:41;8.90;99.90
60717;DHT22;46566;52.700;6.192;2024-02-21T03:59:07;8.90;99.90
60717;DHT22;46566;52.700;6.192;2024-02-21T04:01:34;8.90;99.90
60717;DHT22;46566;52.700;6.192;2024-02-21T04:04:00;8.80;99.90
60717;DHT22;46566;52.700;6.192;2024-02-21T04:06:26;8.90;99.90
60717;DHT22;46566;52.700;6.192;2024-02-21T04:08:52;9.00;99.90
60717;DHT22;46566;52.700;6.192;2024-02-21T04:11:17;8.90;99.90
60717;DHT22;46566;52.700;6.192;2024-02-21T04:13:45;8.90;99.90
60717;DHT22;46566;52.700;6.192;2024-02-21T04:16:11;9.00;99.90
60717;DHT22;46566;52.700;6.192;2024-02-21T04:18:36;8.90;99.90
60717;DHT22;46566;52.700;6.192;2024-02-21T04:21:02;8.90;99.90
60717;DHT22;46566;52.700;6.192;2024-02-21T04:23:28;9.00;99.90
60717;DHT22;46566;52.700;6.192;2024-02-21T04:25:54;9.00;99.90
60717;DHT22;46566;52.700;6.192;2024-02-21T04:28:19;8.90;99.90
60717;DHT22;46566;52.700;6.192;2024-02-21T04:30:45;9.00;99.90
60717;DHT22;46566;52.700;6.192;2024-02-21T04:33:11;9.00;99.90
60717;DHT22;46566;52.700;6.192;2024-02-21T04:35:37;9.00;99.90
60717;DHT22;46566;52.700;6.192;2024-02-21T04:38:04;9.00;99.90
60717;DHT22;46566;52.700;6.192;2024-02-21T04:40:29;8.90;99.90
60717;DHT22;46566;52.700;6.192;2024-02-21T04:42:57;9.00;99.90
60717;DHT22;46566;52.700;6.192;2024-02-21T04:45:23;8.90;99.90
60717;DHT22;46566;52.700;6.192;2024-02-21T04:47:48;9.00;99.90
60717;DHT22;46566;52.700;6.192;2024-02-21T04:50:14;9.10;99.90
60717;DHT22;46566;52.700;6.192;2024-02-21T04:52:40;9.00;99.90
60717;DHT22;46566;52.700;6.192;2024-02-21T04:55:06;9.00;99.90
60717;DHT22;46566;52.700;6.192;2024-02-21T04:57:33;9.10;99.90
60717;DHT22;46566;52.700;6.192;2024-02-21T04:59:58;9.00;99.90
60717;DHT22;46566;52.700;6.192;2024-02-21T05:02:24;9.00;99.90
60717;DHT22;46566;52.700;6.192;2024-02-21T05:04:52;9.10;99.90
60717;DHT22;46566;52.700;6.192;2024-02-21T05:07:18;9.00;99.90
60717;DHT22;46566;52.700;6.192;2024-02-21T05:09:45;9.00;99.90
60717;DHT22;46566;52.700;6.192;2024-02-21T05:12:11;9.10;99.90
60717;DHT22;46566;52.700;6.192;2024-02-21T05:14:37;9.00;99.90
60717;DHT22;46566;52.700;6.192;2024-02-21T05:17:04;9.00;99.90
60717;DHT22;46566;52.700;6.192;2024-02-21T05:19:30;9.00;99.90
60717;DHT22;46566;52.700;6.192;2024-02-21T05:21:55;9.10;99.90
60717;DHT22;46566;52.700;6.192;2024-02-21T05:24:21;9.10;99.90
60717;DHT22;46566;52.700;6.192;2024-02-21T05:26:47;9.00;99.90
60717;DHT22;46566;52.700;6.192;2024-02-21T05:29:13;9.00;99.90
60717;DHT22;46566;52.700;6.192;2024-02-21T05:34:17;9.00;99.90
60717;DHT22;46566;52.700;6.192;2024-02-21T05:36:42;9.00;99.90
60717;DHT22;46566;52.700;6.192;2024-02-21T05:39:08;9.00;99.90
60717;DHT22;46566;52.700;6.192;2024-02-21T05:41:34;9.00;99.90
60717;DHT22;46566;52.700;6.192;2024-02-21T05:44:00;9.10;99.90
60717;DHT22;46566;52.700;6.192;2024-02-21T05:46:26;9.00;99.90
60717;DHT22;46566;52.700;6.192;2024-02-21T05:48:51;9.00;99.90
60717;DHT22;46566;52.700;6.192;2024-02-21T05:51:17;9.00;99.90
60717;DHT22;46566;52.700;6.192;2024-02-21T05:53:43;9.10;99.90
60717;DHT22;46566;52.700;6.192;2024-02-21T05:56:12;9.00;99.90
60717;DHT22;46566;52.700;6.192;2024-02-21T05:58:39;9.00;99.90
60717;DHT22;46566;52.700;6.192;2024-02-21T06:01:05;9.00;99.90
60717;DHT22;46566;52.700;6.192;2024-02-21T06:03:33;9.00;99.90
60717;DHT22;46566;52.700;6.192;2024-02-21T06:06:00;9.00;99.90
60717;DHT22;46566;52.700;6.192;2024-02-21T06:08:26;9.00;99.90
60717;DHT22;46566;52.700;6.192;2024-02-21T06:10:51;9.00;99.90
60717;DHT22;46566;52.700;6.192;2024-02-21T06:13:20;9.00;99.90
60717;DHT22;46566;52.700;6.192;2024-02-21T06:15:49;9.10;99.90
60717;DHT22;46566;52.700;6.192;2024-02-21T06:18:20;9.00;99.90
60717;DHT22;46566;52.700;6.192;2024-02-21T06:20:46;9.00;99.90
60717;DHT22;46566;52.700;6.192;2024-02-21T06:23:13;9.00;99.90
60717;DHT22;46566;52.700;6.192;2024-02-21T06:25:39;9.00;99.90
60717;DHT22;46566;52.700;6.192;2024-02-21T06:28:05;9.00;99.90
60717;DHT22;46566;52.700;6.192;2024-02-21T06:30:31;9.00;99.90
60717;DHT22;46566;52.700;6.192;2024-02-21T06:32:57;9.00;99.90
60717;DHT22;46566;52.700;6.192;2024-02-21T06:35:23;9.00;99.90
60717;DHT22;46566;52.700;6.192;2024-02-21T06:37:52;9.00;99.90
60717;DHT22;46566;52.700;6.192;2024-02-21T06:40:22;9.00;99.90
60717;DHT22;46566;52.700;6.192;2024-02-21T06:42:49;9.00;99.90
60717;DHT22;46566;52.700;6.192;2024-02-21T06:45:17;9.00;99.90
60717;DHT22;46566;52.700;6.192;2024-02-21T06:47:43;9.00;99.90
60717;DHT22;46566;52.700;6.192;2024-02-21T06:50:09;9.00;99.90
60717;DHT22;46566;52.700;6.192;2024-02-21T06:52:38;9.00;99.90
60717;DHT22;46566;52.700;6.192;2024-02-21T06:55:04;9.00;99.90
60717;DHT22;46566;52.700;6.192;2024-02-21T06:57:30;8.90;99.90
60717;DHT22;46566;52.700;6.192;2024-02-21T06:59:55;8.90;99.90
60717;DHT22;46566;52.700;6.192;2024-02-21T07:02:21;8.90;99.90
60717;DHT22;46566;52.700;6.192;2024-02-21T07:04:47;9.00;99.90
60717;DHT22;46566;52.700;6.192;2024-02-21T07:07:13;9.00;99.90
60717;DHT22;46566;52.700;6.192;2024-02-21T07:09:39;8.90;99.90
60717;DHT22;46566;52.700;6.192;2024-02-21T07:12:05;9.00;99.90
60717;DHT22;46566;52.700;6.192;2024-02-21T07:14:32;8.90;99.90
60717;DHT22;46566;52.700;6.192;2024-02-21T07:16:58;8.90;99.90
60717;DHT22;46566;52.700;6.192;2024-02-21T07:19:24;8.90;99.90
60717;DHT22;46566;52.700;6.192;2024-02-21T07:21:49;8.90;99.90
60717;DHT22;46566;52.700;6.192;2024-02-21T07:24:15;8.90;99.90
60717;DHT22;46566;52.700;6.192;2024-02-21T07:26:42;8.90;99.90
60717;DHT22;46566;52.700;6.192;2024-02-21T07:29:08;8.90;99.90
60717;DHT22;46566;52.700;6.192;2024-02-21T07:31:41;8.90;99.90
60717;DHT22;46566;52.700;6.192;2024-02-21T07:34:07;8.90;99.90
60717;DHT22;46566;52.700;6.192;2024-02-21T07:36:33;8.90;99.90
60717;DHT22;46566;52.700;6.192;2024-02-21T07:38:59;8.90;99.90
60717;DHT22;46566;52.700;6.192;2024-02-21T07:41:27;8.90;99.90
60717;DHT22;46566;52.700;6.192;2024-02-21T07:43:55;8.90;99.90
60717;DHT22;46566;52.700;6.192;2024-02-21T07:46:21;8.90;99.90
60717;DHT22;46566;52.700;6.192;2024-02-21T07:48:48;8.90;99.90
60717;DHT22;46566;52.700;6.192;2024-02-21T07:51:14;8.90;99.90
60717;DHT22;46566;52.700;6.192;2024-02-21T07:53:40;8.90;99.90
60717;DHT22;46566;52.700;6.192;2024-02-21T07:56:14;8.90;99.90
60717;DHT22;46566;52.700;6.192;2024-02-21T07:58:41;8.90;99.90
60717;DHT22;46566;52.700;6.192;2024-02-21T08:01:07;8.90;99.90
60717;DHT22;46566;52.700;6.192;2024-02-21T08:03:33;8.90;99.90
60717;DHT22;46566;52.700;6.192;2024-02-21T08:05:58;8.90;99.90
60717;DHT22;46566;52.700;6.192;2024-02-21T08:08:24;8.90;99.90
60717;DHT22;46566;52.700;6.192;2024-02-21T08:10:50;8.90;99.90
60717;DHT22;46566;52.700;6.192;2024-02-21T08:13:16;8.90;99.90
60717;DHT22;46566;52.700;6.192;2024-02-21T08:15:42;8.90;99.90
60717;DHT22;46566;52.700;6.192;2024-02-21T08:18:08;8.90;99.90
60717;DHT22;46566;52.700;6.192;2024-02-21T08:20:34;9.00;99.90
60717;DHT22;46566;52.700;6.192;2024-02-21T08:23:00;9.00;99.90
60717;DHT22;46566;52.700;6.192;2024-02-21T08:25:26;8.90;99.90
60717;DHT22;46566;52.700;6.192;2024-02-21T08:27:58;9.00;99.90
60717;DHT22;46566;52.700;6.192;2024-02-21T08:30:25;9.00;99.90
60717;DHT22;46566;52.700;6.192;2024-02-21T08:32:51;9.00;99.90
60717;DHT22;46566;52.700;6.192;2024-02-21T08:35:17;9.00;99.90
60717;DHT22;46566;52.700;6.192;2024-02-21T08:37:44;9.00;99.90
60717;DHT22;46566;52.700;6.192;2024-02-21T08:40:12;9.00;99.90
60717;DHT22;46566;52.700;6.192;2024-02-21T08:42:41;9.00;99.90
60717;DHT22;46566;52.700;6.192;2024-02-21T08:45:08;9.00;99.90
60717;DHT22;46566;52.700;6.192;2024-02-21T08:47:33;9.00;99.90
60717;DHT22;46566;52.700;6.192;2024-02-21T08:50:02;9.00;99.90
60717;DHT22;46566;52.700;6.192;2024-02-21T08:52:28;9.00;99.90
60717;DHT22;46566;52.700;6.192;2024-02-21T08:54:54;9.00;99.90
60717;DHT22;46566;52.700;6.192;2024-02-21T08:57:20;9.10;99.90
60717;DHT22;46566;52.700;6.192;2024-02-21T08:59:46;9.00;99.90
60717;DHT22;46566;52.700;6.192;2024-02-21T09:02:13;9.10;99.90
60717;DHT22;46566;52.700;6.192;2024-02-21T09:04:39;9.10;99.90
60717;DHT22;46566;52.700;6.192;2024-02-21T09:07:04;9.10;99.90
60717;DHT22;46566;52.700;6.192;2024-02-21T09:09:30;9.10;99.90
60717;DHT22;46566;52.700;6.192;2024-02-21T09:11:58;9.20;99.90
60717;DHT22;46566;52.700;6.192;2024-02-21T09:14:36;9.20;99.90
60717;DHT22;46566;52.700;6.192;2024-02-21T09:17:03;9.20;99.90
60717;DHT22;46566;52.700;6.192;2024-02-21T09:19:28;9.20;99.90
60717;DHT22;46566;52.700;6.192;2024-02-21T09:21:55;9.20;99.90
60717;DHT22;46566;52.700;6.192;2024-02-21T09:24:21;9.20;99.90
60717;DHT22;46566;52.700;6.192;2024-02-21T09:26:46;9.20;99.90
60717;DHT22;46566;52.700;6.192;2024-02-21T09:29:13;9.30;99.90
60717;DHT22;46566;52.700;6.192;2024-02-21T09:31:38;9.30;99.90
60717;DHT22;46566;52.700;6.192;2024-02-21T09:34:05;9.30;99.90
60717;DHT22;46566;52.700;6.192;2024-02-21T09:36:30;9.30;99.90
60717;DHT22;46566;52.700;6.192;2024-02-21T09:38:56;9.30;99.90
60717;DHT22;46566;52.700;6.192;2024-02-21T09:41:26;9.30;99.90
60717;DHT22;46566;52.700;6.192;2024-02-21T09:43:55;9.30;99.90
60717;DHT22;46566;52.700;6.192;2024-02-21T09:47:17;9.30;99.90
60717;DHT22;46566;52.700;6.192;2024-02-21T09:51:54;9.30;99.90
60717;DHT22;46566;52.700;6.192;2024-02-21T09:54:21;9.40;99.90
60717;DHT22;46566;52.700;6.192;2024-02-21T09:56:47;9.30;99.90
60717;DHT22;46566;52.700;6.192;2024-02-21T09:59:16;9.40;99.90
60717;DHT22;46566;52.700;6.192;2024-02-21T10:01:43;9.40;99.90
60717;DHT22;46566;52.700;6.192;2024-02-21T10:04:10;9.40;99.90
60717;DHT22;46566;52.700;6.192;2024-02-21T10:06:36;9.40;99.90
60717;DHT22;46566;52.700;6.192;2024-02-21T10:09:03;9.40;99.90
60717;DHT22;46566;52.700;6.192;2024-02-21T10:11:29;9.40;99.90
60717;DHT22;46566;52.700;6.192;2024-02-21T10:14:06;9.40;99.90
60717;DHT22;46566;52.700;6.192;2024-02-21T10:16:33;9.50;99.90
60717;DHT22;46566;52.700;6.192;2024-02-21T10:18:59;9.50;99.90
60717;DHT22;46566;52.700;6.192;2024-02-21T10:21:25;9.50;99.90
60717;DHT22;46566;52.700;6.192;2024-02-21T10:23:51;9.50;99.90
60717;DHT22;46566;52.700;6.192;2024-02-21T10:26:19;9.50;99.90
60717;DHT22;46566;52.700;6.192;2024-02-21T10:28:45;9.50;99.90
60717;DHT22;46566;52.700;6.192;2024-02-21T10:31:22;9.60;99.90
60717;DHT22;46566;52.700;6.192;2024-02-21T10:33:59;9.50;99.90
60717;DHT22;46566;52.700;6.192;2024-02-21T10:36:25;9.50;99.90
60717;DHT22;46566;52.700;6.192;2024-02-21T10:38:52;9.50;99.90
60717;DHT22;46566;52.700;6.192;2024-02-21T10:41:20;9.60;99.90
60717;DHT22;46566;52.700;6.192;2024-02-21T10:43:55;9.50;99.90
60717;DHT22;46566;52.700;6.192;2024-02-21T10:46:23;9.50;99.90
60717;DHT22;46566;52.700;6.192;2024-02-21T10:49:05;9.60;99.90
60717;DHT22;46566;52.700;6.192;2024-02-21T10:51:33;9.60;99.90
60717;DHT22;46566;52.700;6.192;2024-02-21T10:54:14;9.60;99.90
60717;DHT22;46566;52.700;6.192;2024-02-21T10:56:43;9.70;99.90
60717;DHT22;46566;52.700;6.192;2024-02-21T10:59:09;9.70;99.90
60717;DHT22;46566;52.700;6.192;2024-02-21T11:01:36;9.70;99.90
60717;DHT22;46566;52.700;6.192;2024-02-21T11:04:04;9.80;99.90
60717;DHT22;46566;52.700;6.192;2024-02-21T11:06:31;9.80;99.90
60717;DHT22;46566;52.700;6.192;2024-02-21T11:09:05;9.80;99.90
60717;DHT22;46566;52.700;6.192;2024-02-21T11:11:39;9.80;99.90
60717;DHT22;46566;52.700;6.192;2024-02-21T11:14:27;9.80;99.90
60717;DHT22;46566;52.700;6.192;2024-02-21T11:16:53;9.80;99.90
60717;DHT22;46566;52.700;6.192;2024-02-21T11:19:23;9.90;99.90
60717;DHT22;46566;52.700;6.192;2024-02-21T11:21:50;9.80;99.90
60717;DHT22;46566;52.700;6.192;2024-02-21T11:24:26;9.80;99.90
60717;DHT22;46566;52.700;6.192;2024-02-21T11:26:54;9.80;99.90
60717;DHT22;46566;52.700;6.192;2024-02-21T11:29:24;9.80;99.90
60717;DHT22;46566;52.700;6.192;2024-02-21T11:31:54;9.80;99.90
60717;DHT22;46566;52.700;6.192;2024-02-21T11:34:20;9.80;99.90
60717;DHT22;46566;52.700;6.192;2024-02-21T11:36:47;9.70;99.90
60717;DHT22;46566;52.700;6.192;2024-02-21T11:39:25;9.70;99.90
60717;DHT22;46566;52.700;6.192;2024-02-21T11:42:05;9.70;99.90
60717;DHT22;46566;52.700;6.192;2024-02-21T11:44:32;9.70;99.90
60717;DHT22;46566;52.700;6.192;2024-02-21T11:46:58;9.70;99.90
60717;DHT22;46566;52.700;6.192;2024-02-21T11:49:30;9.70;99.90
60717;DHT22;46566;52.700;6.192;2024-02-21T11:52:03;9.70;99.90
60717;DHT22;46566;52.700;6.192;2024-02-21T11:54:33;9.70;99.90
60717;DHT22;46566;52.700;6.192;2024-02-21T11:57:00;9.70;99.90
60717;DHT22;46566;52.700;6.192;2024-02-21T11:59:26;9.70;99.90
60717;DHT22;46566;52.700;6.192;2024-02-21T12:01:53;9.70;99.90
60717;DHT22;46566;52.700;6.192;2024-02-21T12:04:20;9.70;99.90
60717;DHT22;46566;52.700;6.192;2024-02-21T12:06:46;9.70;99.90
60717;DHT22;46566;52.700;6.192;2024-02-21T12:09:15;9.70;99.90
60717;DHT22;46566;52.700;6.192;2024-02-21T12:11:44;9.70;99.90
60717;DHT22;46566;52.700;6.192;2024-02-21T12:14:11;9.70;99.90
60717;DHT22;46566;52.700;6.192;2024-02-21T12:16:41;9.80;99.90
60717;DHT22;46566;52.700;6.192;2024-02-21T12:19:07;9.70;99.90
60717;DHT22;46566;52.700;6.192;2024-02-21T12:21:35;9.70;99.90
60717;DHT22;46566;52.700;6.192;2024-02-21T12:26:40;9.70;99.90
60717;DHT22;46566;52.700;6.192;2024-02-21T12:29:06;9.70;99.90
60717;DHT22;46566;52.700;6.192;2024-02-21T12:31:36;9.70;99.90
60717;DHT22;46566;52.700;6.192;2024-02-21T12:34:02;9.70;99.90
60717;DHT22;46566;52.700;6.192;2024-02-21T12:36:28;9.70;99.90
60717;DHT22;46566;52.700;6.192;2024-02-21T12:38:54;9.70;99.90
60717;DHT22;46566;52.700;6.192;2024-02-21T12:41:20;9.70;99.90
60717;DHT22;46566;52.700;6.192;2024-02-21T12:43:46;9.80;99.90
60717;DHT22;46566;52.700;6.192;2024-02-21T12:46:12;9.80;99.90
60717;DHT22;46566;52.700;6.192;2024-02-21T12:48:38;9.80;99.90
60717;DHT22;46566;52.700;6.192;2024-02-21T12:51:05;9.80;99.90
60717;DHT22;46566;52.700;6.192;2024-02-21T12:53:31;9.90;99.90
60717;DHT22;46566;52.700;6.192;2024-02-21T12:55:57;9.90;99.90
60717;DHT22;46566;52.700;6.192;2024-02-21T12:58:23;9.90;99.90
60717;DHT22;46566;52.700;6.192;2024-02-21T13:00:48;9.90;99.90
60717;DHT22;46566;52.700;6.192;2024-02-21T13:03:14;9.90;99.90
60717;DHT22;46566;52.700;6.192;2024-02-21T13:05:40;9.90;99.90
60717;DHT22;46566;52.700;6.192;2024-02-21T13:08:06;9.90;99.90
60717;DHT22;46566;52.700;6.192;2024-02-21T13:10:33;9.90;99.90
60717;DHT22;46566;52.700;6.192;2024-02-21T13:13:00;10.00;99.90
60717;DHT22;46566;52.700;6.192;2024-02-21T13:15:26;10.00;99.90
60717;DHT22;46566;52.700;6.192;2024-02-21T13:17:53;10.00;99.90
60717;DHT22;46566;52.700;6.192;2024-02-21T13:20:20;10.10;99.90
60717;DHT22;46566;52.700;6.192;2024-02-21T13:22:46;10.00;99.90
60717;DHT22;46566;52.700;6.192;2024-02-21T13:25:12;10.00;99.90
60717;DHT22;46566;52.700;6.192;2024-02-21T13:27:41;10.10;99.90
60717;DHT22;46566;52.700;6.192;2024-02-21T13:30:07;10.10;99.90
60717;DHT22;46566;52.700;6.192;2024-02-21T13:32:35;10.10;99.90
60717;DHT22;46566;52.700;6.192;2024-02-21T13:35:01;10.00;99.90
60717;DHT22;46566;52.700;6.192;2024-02-21T13:37:27;10.00;99.90
60717;DHT22;46566;52.700;6.192;2024-02-21T13:39:54;10.00;99.90
60717;DHT22;46566;52.700;6.192;2024-02-21T13:42:20;10.00;99.90
60717;DHT22;46566;52.700;6.192;2024-02-21T13:44:46;10.00;99.90
60717;DHT22;46566;52.700;6.192;2024-02-21T13:47:14;10.00;99.90
60717;DHT22;46566;52.700;6.192;2024-02-21T13:49:40;10.00;99.90
60717;DHT22;46566;52.700;6.192;2024-02-21T13:52:05;10.00;99.90
60717;DHT22;46566;52.700;6.192;2024-02-21T13:54:31;10.00;99.90
60717;DHT22;46566;52.700;6.192;2024-02-21T13:56:57;10.00;99.90
60717;DHT22;46566;52.700;6.192;2024-02-21T13:59:23;10.00;99.90
60717;DHT22;46566;52.700;6.192;2024-02-21T14:01:48;10.00;99.90
60717;DHT22;46566;52.700;6.192;2024-02-21T14:04:14;9.90;99.90
60717;DHT22;46566;52.700;6.192;2024-02-21T14:06:40;9.90;99.90
60717;DHT22;46566;52.700;6.192;2024-02-21T14:09:09;9.90;99.90
60717;DHT22;46566;52.700;6.192;2024-02-21T14:11:35;9.90;99.90
60717;DHT22;46566;52.700;6.192;2024-02-21T14:14:01;10.00;99.90
60717;DHT22;46566;52.700;6.192;2024-02-21T14:16:27;9.90;99.90
60717;DHT22;46566;52.700;6.192;2024-02-21T14:18:53;9.90;99.90
60717;DHT22;46566;52.700;6.192;2024-02-21T14:21:19;9.90;99.90
60717;DHT22;46566;52.700;6.192;2024-02-21T14:23:45;9.90;99.90
60717;DHT22;46566;52.700;6.192;2024-02-21T14:26:11;9.90;99.90
60717;DHT22;46566;52.700;6.192;2024-02-21T14:28:37;9.90;99.90
60717;DHT22;46566;52.700;6.192;2024-02-21T14:31:03;9.90;99.90
60717;DHT22;46566;52.700;6.192;2024-02-21T14:33:31;9.90;99.90
60717;DHT22;46566;52.700;6.192;2024-02-21T14:35:57;9.90;99.90
60717;DHT22;46566;52.700;6.192;2024-02-21T14:38:23;9.90;99.90
60717;DHT22;46566;52.700;6.192;2024-02-21T14:40:49;9.90;99.90
60717;DHT22;46566;52.700;6.192;2024-02-21T14:43:14;9.80;99.90
60717;DHT22;46566;52.700;6.192;2024-02-21T14:45:40;9.80;99.90
60717;DHT22;46566;52.700;6.192;2024-02-21T14:48:07;9.80;99.90
60717;DHT22;46566;52.700;6.192;2024-02-21T14:50:32;9.80;99.90
60717;DHT22;46566;52.700;6.192;2024-02-21T14:52:58;9.80;99.90
60717;DHT22;46566;52.700;6.192;2024-02-21T14:55:36;9.80;99.90
60717;DHT22;46566;52.700;6.192;2024-02-21T14:58:02;9.80;99.90
60717;DHT22;46566;52.700;6.192;2024-02-21T15:00:35;9.80;99.90
60717;DHT22;46566;52.700;6.192;2024-02-21T15:03:00;9.80;99.90
60717;DHT22;46566;52.700;6.192;2024-02-21T15:05:52;9.80;99.90
60717;DHT22;46566;52.700;6.192;2024-02-21T15:08:19;9.80;99.90
60717;DHT22;46566;52.700;6.192;2024-02-21T15:10:45;9.80;99.90
60717;DHT22;46566;52.700;6.192;2024-02-21T15:13:11;9.80;99.90
60717;DHT22;46566;52.700;6.192;2024-02-21T15:16:02;9.80;99.90
60717;DHT22;46566;52.700;6.192;2024-02-21T15:18:30;9.80;99.90
60717;DHT22;46566;52.700;6.192;2024-02-21T15:20:59;9.80;99.90
60717;DHT22;46566;52.700;6.192;2024-02-21T15:23:25;9.80;99.90
60717;DHT22;46566;52.700;6.192;2024-02-21T15:26:16;9.80;99.90
60717;DHT22;46566;52.700;6.192;2024-02-21T15:28:43;9.80;99.90
60717;DHT22;46566;52.700;6.192;2024-02-21T15:31:09;9.80;99.90
60717;DHT22;46566;52.700;6.192;2024-02-21T15:33:34;9.80;99.90
60717;DHT22;46566;52.700;6.192;2024-02-21T15:36:25;9.80;99.90
60717;DHT22;46566;52.700;6.192;2024-02-21T15:38:51;9.80;99.90
60717;DHT22;46566;52.700;6.192;2024-02-21T15:41:17;9.80;99.90
60717;DHT22;46566;52.700;6.192;2024-02-21T15:44:12;9.80;99.90
60717;DHT22;46566;52.700;6.192;2024-02-21T15:46:38;9.80;99.90
60717;DHT22;46566;52.700;6.192;2024-02-21T15:49:04;9.80;99.90
60717;DHT22;46566;52.700;6.192;2024-02-21T15:51:30;9.70;99.90